Slotergracht — PDBP — position and weather

sailwx.info

Track history (hours):
 
Tides and Currents Weather Stations Pressure Air Temp Water Temp Dewpoint Dewpoint Depression Visibility Wind Speed Wind Dir Waves Ship Positions

Slotergracht

Last reported at 2017-Jul-27 02:30 UTC. Time now 2017-Jul-27 02:31 UTC.
Position N 55°41' E 015°33'.

Length 168 m; beam 25 m.

Type: Cargo ship. MMSI: 246456000.

Date/timePositionNaut miles runAvg speedWind from/ knotsBaromVisibWave heightAir tempDewpointWater temp
2017-Jul-27 02:30N 55°41' E 015°33'714.8
2017-Jul-27 02:00N 55°37' E 015°22'714.9
2017-Jul-27 01:30N 55°33' E 015°10'815.1
2017-Jul-27 01:00N 55°30' E 014°59'815.1
2017-Jul-27 00:30N 55°27' E 014°47'715.0
2017-Jul-27 00:00N 55°22' E 014°36'815.3
2017-Jul-26 23:30N 55°16' E 014°28'815.5
2017-Jul-26 23:00N 55°10' E 014°20'815.4
2017-Jul-26 22:30N 55°04' E 014°11'714.5
2017-Jul-26 22:00N 54°60' E 014°00'815.2
2017-Jul-26 21:30N 54°58' E 013°48'815.1
2017-Jul-26 21:00N 54°55' E 013°35'815.1
2017-Jul-26 20:30N 54°53' E 013°23'815.1
2017-Jul-26 20:00N 54°50' E 013°11'1214.9
2017-Jul-26 19:12N 54°47' E 012°50'714.3
2017-Jul-26 18:44N 54°45' E 012°39'1414.4
2017-Jul-26 17:47N 54°37' E 012°20'413.2
2017-Jul-26 17:30N 54°34' E 012°16'714.4
2017-Jul-26 17:00N 54°27' E 012°12'1513.6
2017-Jul-26 15:55N 54°25' E 011°47'616.0
2017-Jul-26 15:30N 54°27' E 011°37'817.0
2017-Jul-26 15:01N 54°31' E 011°24'1414.3
2017-Jul-26 14:01N 54°36' E 011°00'714.2
2017-Jul-26 13:30N 54°39' E 010°50'611.5
2017-Jul-26 13:01N 54°45' E 010°47'713.3
2017-Jul-26 12:31N 54°51' E 010°50'612.4
2017-Jul-26 12:00N 54°57' E 010°54'612.3
2017-Jul-26 11:30N 55°02' E 010°60'912.9
2017-Jul-26 10:48N 55°11' E 011°03'412.0
2017-Jul-26 10:29N 55°14' E 011°06'713.9
2017-Jul-26 10:00N 55°21' E 011°02'713.8
2017-Jul-26 09:28N 55°27' E 010°56'913.7
2017-Jul-26 08:48N 55°36' E 010°49'413.3
2017-Jul-26 08:29N 55°39' E 010°46'714.0
2017-Jul-26 07:59N 55°46' E 010°48'613.1
2017-Jul-26 07:30N 55°52' E 010°52'713.9
2017-Jul-26 07:00N 55°58' E 011°00'714.0
2017-Jul-26 06:30N 56°04' E 011°06'813.7
2017-Jul-26 05:57N 56°10' E 011°15'714.3
2017-Jul-26 05:29N 56°15' E 011°21'914.6
2017-Jul-26 04:51N 56°24' E 011°29'514.2
2017-Jul-26 04:30N 56°28' E 011°34'714.1
2017-Jul-26 03:59N 56°34' E 011°40'714.3
2017-Jul-26 03:30N 56°40' E 011°46'713.3
2017-Jul-26 02:59N 56°46' E 011°52'814.8
2017-Jul-26 02:28N 56°54' E 011°47'914.4
2017-Jul-26 01:50N 57°02' E 011°41'514.2
2017-Jul-26 01:30N 57°06' E 011°38'714.0
2017-Jul-26 01:00N 57°13' E 011°34'714.2
2017-Jul-26 00:31N 57°20' E 011°29'714.6
2017-Jul-26 00:01N 57°27' E 011°25'816.1
2017-Jul-25 23:30N 57°32' E 011°14'714.4
2017-Jul-25 23:00N 57°36' E 011°02'713.1
2017-Jul-25 22:30N 57°42' E 010°55'714.1
2017-Jul-25 22:00N 57°46' E 010°46'714.1
2017-Jul-25 21:29N 57°47' E 010°32'714.7
2017-Jul-25 21:00N 57°46' E 010°19'815.3
2017-Jul-25 20:30N 57°45' E 010°05'8115.0
2017-Jul-25 15:07N 57°05' E 007°55'2914.8
2017-Jul-25 13:08N 56°39' E 007°31'213.9
2017-Jul-25 12:58N 56°37' E 007°29'714.0
2017-Jul-25 12:28N 56°30' E 007°23'20513.8
2017-Jul-24 21:36N 53°27' E 004°44'214.1
2017-Jul-24 21:28N 53°25' E 004°43'714.1
2017-Jul-24 20:57N 53°19' E 004°38'614.1
2017-Jul-24 20:30N 53°13' E 004°33'714.4
2017-Jul-24 20:00N 53°07' E 004°27'714.6
2017-Jul-24 19:30N 53°00' E 004°21'714.6
2017-Jul-24 19:00N 52°54' E 004°16'914.9
2017-Jul-24 18:26N 52°47' E 004°08'814.9
2017-Jul-24 17:53N 52°41' E 003°59'715.1
2017-Jul-24 17:27N 52°36' E 003°52'8117.1
2017-Jul-24 12:44N 51°36' E 002°23'418.2
2017-Jul-24 12:30N 51°33' E 002°19'917.7
2017-Jul-24 12:01N 51°27' E 002°10'816.4
2017-Jul-24 11:30N 51°18' E 002°07'713.8
2017-Jul-24 11:01N 51°12' E 002°02'816.7
2017-Jul-24 10:31N 51°08' E 001°51'816.1
2017-Jul-24 10:01N 51°03' E 001°42'815.7
2017-Jul-24 09:30N 50°57' E 001°33'814.9
2017-Jul-24 09:00N 50°50' E 001°27'5015.0
2017-Jul-24 05:40N 50°23' E 000°21'315.5
2017-Jul-24 05:30N 50°23' E 000°17'1015.4
2017-Jul-24 04:53N 50°20' E 000°02'615.1
2017-Jul-24 04:31N 50°18' W 000°06'814.8
2017-Jul-24 03:59N 50°16' W 000°18'3813.9
2017-Jul-24 01:16N 50°06' W 001°15'413.8
2017-Jul-24 01:00N 50°05' W 001°20'714.1
2017-Jul-24 00:30N 50°03' W 001°31'714.7
2017-Jul-24 00:01N 50°01' W 001°42'815.5
2017-Jul-23 23:31N 49°59' W 001°53'816.4
2017-Jul-23 23:00N 49°57' W 002°06'2117.5
2017-Jul-23 21:48N 49°52' W 002°37'517.9
2017-Jul-23 21:31N 49°50' W 002°45'917.9
2017-Jul-23 21:01N 49°47' W 002°58'917.9
2017-Jul-23 20:30N 49°44' W 003°11'918.1
2017-Jul-23 20:01N 49°41' W 003°25'918.0
2017-Jul-23 19:30N 49°39' W 003°38'918.0
2017-Jul-23 19:00N 49°36' W 003°51'  
2017-Jul-20 03:38N 34°06' W 021°56'  
Track history (hours):
 
Tides and Currents Weather Stations Pressure Air Temp Water Temp Dewpoint Dewpoint Depression Visibility Wind Speed Wind Dir Waves Ship Positions

Slotergracht

Last reported at 2017-Jul-27 02:30 UTC. Time now 2017-Jul-27 02:31 UTC.
Position N 55°41' E 015°33'.

Length 168 m; beam 25 m.

Type: Cargo ship. MMSI: 246456000.

Date/timePositionNaut miles runAvg speedWind from/ knotsBaromVisibWave heightAir tempDewpointWater temp
2017-Jul-27 02:30N 55°41' E 015°33'714.8
2017-Jul-27 02:00N 55°37' E 015°22'714.9
2017-Jul-27 01:30N 55°33' E 015°10'815.1
2017-Jul-27 01:00N 55°30' E 014°59'815.1
2017-Jul-27 00:30N 55°27' E 014°47'715.0
2017-Jul-27 00:00N 55°22' E 014°36'815.3
2017-Jul-26 23:30N 55°16' E 014°28'815.5
2017-Jul-26 23:00N 55°10' E 014°20'815.4
2017-Jul-26 22:30N 55°04' E 014°11'714.5
2017-Jul-26 22:00N 54°60' E 014°00'815.2
2017-Jul-26 21:30N 54°58' E 013°48'815.1
2017-Jul-26 21:00N 54°55' E 013°35'815.1
2017-Jul-26 20:30N 54°53' E 013°23'815.1
2017-Jul-26 20:00N 54°50' E 013°11'1214.9
2017-Jul-26 19:12N 54°47' E 012°50'714.3
2017-Jul-26 18:44N 54°45' E 012°39'1414.4
2017-Jul-26 17:47N 54°37' E 012°20'413.2
2017-Jul-26 17:30N 54°34' E 012°16'714.4
2017-Jul-26 17:00N 54°27' E 012°12'1513.6
2017-Jul-26 15:55N 54°25' E 011°47'616.0
2017-Jul-26 15:30N 54°27' E 011°37'817.0
2017-Jul-26 15:01N 54°31' E 011°24'1414.3
2017-Jul-26 14:01N 54°36' E 011°00'714.2
2017-Jul-26 13:30N 54°39' E 010°50'611.5
2017-Jul-26 13:01N 54°45' E 010°47'713.3
2017-Jul-26 12:31N 54°51' E 010°50'612.4
2017-Jul-26 12:00N 54°57' E 010°54'612.3
2017-Jul-26 11:30N 55°02' E 010°60'912.9
2017-Jul-26 10:48N 55°11' E 011°03'412.0
2017-Jul-26 10:29N 55°14' E 011°06'713.9
2017-Jul-26 10:00N 55°21' E 011°02'713.8
2017-Jul-26 09:28N 55°27' E 010°56'913.7
2017-Jul-26 08:48N 55°36' E 010°49'413.3
2017-Jul-26 08:29N 55°39' E 010°46'714.0
2017-Jul-26 07:59N 55°46' E 010°48'613.1
2017-Jul-26 07:30N 55°52' E 010°52'713.9
2017-Jul-26 07:00N 55°58' E 011°00'714.0
2017-Jul-26 06:30N 56°04' E 011°06'813.7
2017-Jul-26 05:57N 56°10' E 011°15'714.3
2017-Jul-26 05:29N 56°15' E 011°21'914.6
2017-Jul-26 04:51N 56°24' E 011°29'514.2
2017-Jul-26 04:30N 56°28' E 011°34'714.1
2017-Jul-26 03:59N 56°34' E 011°40'714.3
2017-Jul-26 03:30N 56°40' E 011°46'713.3
2017-Jul-26 02:59N 56°46' E 011°52'814.8
2017-Jul-26 02:28N 56°54' E 011°47'914.4
2017-Jul-26 01:50N 57°02' E 011°41'514.2
2017-Jul-26 01:30N 57°06' E 011°38'714.0
2017-Jul-26 01:00N 57°13' E 011°34'714.2
2017-Jul-26 00:31N 57°20' E 011°29'714.6
2017-Jul-26 00:01N 57°27' E 011°25'816.1
2017-Jul-25 23:30N 57°32' E 011°14'714.4
2017-Jul-25 23:00N 57°36' E 011°02'713.1
2017-Jul-25 22:30N 57°42' E 010°55'714.1
2017-Jul-25 22:00N 57°46' E 010°46'714.1
2017-Jul-25 21:29N 57°47' E 010°32'714.7
2017-Jul-25 21:00N 57°46' E 010°19'815.3
2017-Jul-25 20:30N 57°45' E 010°05'8115.0
2017-Jul-25 15:07N 57°05' E 007°55'2914.8
2017-Jul-25 13:08N 56°39' E 007°31'213.9
2017-Jul-25 12:58N 56°37' E 007°29'714.0
2017-Jul-25 12:28N 56°30' E 007°23'20513.8
2017-Jul-24 21:36N 53°27' E 004°44'214.1
2017-Jul-24 21:28N 53°25' E 004°43'714.1
2017-Jul-24 20:57N 53°19' E 004°38'614.1
2017-Jul-24 20:30N 53°13' E 004°33'714.4
2017-Jul-24 20:00N 53°07' E 004°27'714.6
2017-Jul-24 19:30N 53°00' E 004°21'714.6
2017-Jul-24 19:00N 52°54' E 004°16'914.9
2017-Jul-24 18:26N 52°47' E 004°08'814.9
2017-Jul-24 17:53N 52°41' E 003°59'715.1
2017-Jul-24 17:27N 52°36' E 003°52'8117.1
2017-Jul-24 12:44N 51°36' E 002°23'418.2
2017-Jul-24 12:30N 51°33' E 002°19'917.7
2017-Jul-24 12:01N 51°27' E 002°10'816.4
2017-Jul-24 11:30N 51°18' E 002°07'713.8
2017-Jul-24 11:01N 51°12' E 002°02'816.7
2017-Jul-24 10:31N 51°08' E 001°51'816.1
2017-Jul-24 10:01N 51°03' E 001°42'815.7
2017-Jul-24 09:30N 50°57' E 001°33'814.9
2017-Jul-24 09:00N 50°50' E 001°27'5015.0
2017-Jul-24 05:40N 50°23' E 000°21'315.5
2017-Jul-24 05:30N 50°23' E 000°17'1015.4
2017-Jul-24 04:53N 50°20' E 000°02'615.1
2017-Jul-24 04:31N 50°18' W 000°06'814.8
2017-Jul-24 03:59N 50°16' W 000°18'3813.9
2017-Jul-24 01:16N 50°06' W 001°15'413.8
2017-Jul-24 01:00N 50°05' W 001°20'714.1
2017-Jul-24 00:30N 50°03' W 001°31'714.7
2017-Jul-24 00:01N 50°01' W 001°42'815.5
2017-Jul-23 23:31N 49°59' W 001°53'816.4
2017-Jul-23 23:00N 49°57' W 002°06'2117.5
2017-Jul-23 21:48N 49°52' W 002°37'517.9
2017-Jul-23 21:31N 49°50' W 002°45'917.9
2017-Jul-23 21:01N 49°47' W 002°58'917.9
2017-Jul-23 20:30N 49°44' W 003°11'918.1
2017-Jul-23 20:01N 49°41' W 003°25'918.0
2017-Jul-23 19:30N 49°39' W 003°38'918.0
2017-Jul-23 19:00N 49°36' W 003°51'  
2017-Jul-20 03:38N 34°06' W 021°56'  

Dump ship's entire track history